sensor_id;sensor_type;location;lat;lon;timestamp;P1;durP1;ratioP1;P2;durP2;ratioP2
75746;SDS011;70632;52.232;21.038;2024-03-08T00:00:47;59.83;;;23.52;;
75746;SDS011;70632;52.232;21.038;2024-03-08T00:03:32;50.65;;;21.58;;
75746;SDS011;70632;52.232;21.038;2024-03-08T00:05:59;54.80;;;22.50;;
75746;SDS011;70632;52.232;21.038;2024-03-08T00:08:24;58.20;;;22.25;;
75746;SDS011;70632;52.232;21.038;2024-03-08T00:10:50;55.67;;;21.20;;
75746;SDS011;70632;52.232;21.038;2024-03-08T00:13:16;52.30;;;21.23;;
75746;SDS011;70632;52.232;21.038;2024-03-08T00:15:41;49.72;;;21.40;;
75746;SDS011;70632;52.232;21.038;2024-03-08T00:18:07;43.20;;;20.00;;
75746;SDS011;70632;52.232;21.038;2024-03-08T00:20:32;49.78;;;20.33;;
75746;SDS011;70632;52.232;21.038;2024-03-08T00:22:58;57.08;;;20.40;;
75746;SDS011;70632;52.232;21.038;2024-03-08T00:25:24;54.88;;;20.35;;
75746;SDS011;70632;52.232;21.038;2024-03-08T00:27:50;47.35;;;20.30;;
75746;SDS011;70632;52.232;21.038;2024-03-08T00:30:15;52.63;;;20.83;;
75746;SDS011;70632;52.232;21.038;2024-03-08T00:32:41;51.50;;;21.25;;
75746;SDS011;70632;52.232;21.038;2024-03-08T00:35:07;55.85;;;21.58;;
75746;SDS011;70632;52.232;21.038;2024-03-08T00:37:32;49.78;;;19.65;;
75746;SDS011;70632;52.232;21.038;2024-03-08T00:40:00;45.40;;;20.45;;
75746;SDS011;70632;52.232;21.038;2024-03-08T00:42:25;43.83;;;18.98;;
75746;SDS011;70632;52.232;21.038;2024-03-08T00:44:51;49.95;;;20.33;;
75746;SDS011;70632;52.232;21.038;2024-03-08T00:47:17;59.97;;;21.52;;
75746;SDS011;70632;52.232;21.038;2024-03-08T00:49:42;43.75;;;19.52;;
75746;SDS011;70632;52.232;21.038;2024-03-08T00:52:08;47.83;;;21.85;;
75746;SDS011;70632;52.232;21.038;2024-03-08T00:54:34;53.08;;;20.42;;
75746;SDS011;70632;52.232;21.038;2024-03-08T00:57:01;51.47;;;20.85;;
75746;SDS011;70632;52.232;21.038;2024-03-08T00:59:28;50.80;;;21.55;;
75746;SDS011;70632;52.232;21.038;2024-03-08T01:01:54;53.13;;;20.45;;
75746;SDS011;70632;52.232;21.038;2024-03-08T01:04:20;48.83;;;19.20;;
75746;SDS011;70632;52.232;21.038;2024-03-08T01:06:46;54.13;;;23.63;;
75746;SDS011;70632;52.232;21.038;2024-03-08T01:09:13;56.17;;;22.70;;
75746;SDS011;70632;52.232;21.038;2024-03-08T01:11:38;56.83;;;22.15;;
75746;SDS011;70632;52.232;21.038;2024-03-08T01:14:12;49.10;;;21.65;;
75746;SDS011;70632;52.232;21.038;2024-03-08T01:16:38;52.00;;;22.08;;
75746;SDS011;70632;52.232;21.038;2024-03-08T01:19:03;55.95;;;23.40;;
75746;SDS011;70632;52.232;21.038;2024-03-08T01:21:29;53.25;;;22.52;;
75746;SDS011;70632;52.232;21.038;2024-03-08T01:23:54;56.20;;;22.90;;
75746;SDS011;70632;52.232;21.038;2024-03-08T01:26:20;50.08;;;22.08;;
75746;SDS011;70632;52.232;21.038;2024-03-08T01:28:46;56.28;;;23.00;;
75746;SDS011;70632;52.232;21.038;2024-03-08T01:31:11;58.13;;;22.67;;
75746;SDS011;70632;52.232;21.038;2024-03-08T01:33:37;60.95;;;21.77;;
75746;SDS011;70632;52.232;21.038;2024-03-08T01:36:03;53.13;;;22.60;;
75746;SDS011;70632;52.232;21.038;2024-03-08T01:38:28;60.85;;;23.40;;
75746;SDS011;70632;52.232;21.038;2024-03-08T01:40:54;55.70;;;23.80;;
75746;SDS011;70632;52.232;21.038;2024-03-08T01:43:26;51.92;;;22.00;;
75746;SDS011;70632;52.232;21.038;2024-03-08T01:45:53;55.25;;;24.15;;
75746;SDS011;70632;52.232;21.038;2024-03-08T01:48:19;63.60;;;22.63;;
75746;SDS011;70632;52.232;21.038;2024-03-08T01:50:49;52.85;;;23.13;;
75746;SDS011;70632;52.232;21.038;2024-03-08T01:53:15;64.88;;;25.50;;
75746;SDS011;70632;52.232;21.038;2024-03-08T01:55:42;57.75;;;23.00;;
75746;SDS011;70632;52.232;21.038;2024-03-08T01:58:10;54.78;;;22.80;;
75746;SDS011;70632;52.232;21.038;2024-03-08T02:00:36;56.05;;;24.05;;
75746;SDS011;70632;52.232;21.038;2024-03-08T02:03:05;58.15;;;23.92;;
75746;SDS011;70632;52.232;21.038;2024-03-08T02:05:31;65.45;;;24.48;;
75746;SDS011;70632;52.232;21.038;2024-03-08T02:07:57;59.72;;;24.75;;
75746;SDS011;70632;52.232;21.038;2024-03-08T02:10:22;64.82;;;25.17;;
75746;SDS011;70632;52.232;21.038;2024-03-08T02:12:48;64.30;;;24.30;;
75746;SDS011;70632;52.232;21.038;2024-03-08T02:15:14;63.92;;;23.42;;
75746;SDS011;70632;52.232;21.038;2024-03-08T02:17:40;60.55;;;24.42;;
75746;SDS011;70632;52.232;21.038;2024-03-08T02:20:06;60.28;;;25.20;;
75746;SDS011;70632;52.232;21.038;2024-03-08T02:22:34;65.60;;;25.80;;
75746;SDS011;70632;52.232;21.038;2024-03-08T02:25:00;68.25;;;25.27;;
75746;SDS011;70632;52.232;21.038;2024-03-08T02:27:29;62.00;;;26.50;;
75746;SDS011;70632;52.232;21.038;2024-03-08T02:29:58;66.35;;;24.80;;
75746;SDS011;70632;52.232;21.038;2024-03-08T02:32:23;59.38;;;26.40;;
75746;SDS011;70632;52.232;21.038;2024-03-08T02:34:49;61.30;;;25.05;;
75746;SDS011;70632;52.232;21.038;2024-03-08T02:37:15;66.85;;;25.30;;
75746;SDS011;70632;52.232;21.038;2024-03-08T02:39:41;66.88;;;26.92;;
75746;SDS011;70632;52.232;21.038;2024-03-08T02:42:07;56.40;;;26.05;;
75746;SDS011;70632;52.232;21.038;2024-03-08T02:44:32;64.72;;;25.92;;
75746;SDS011;70632;52.232;21.038;2024-03-08T02:46:59;72.80;;;26.90;;
75746;SDS011;70632;52.232;21.038;2024-03-08T02:49:25;67.30;;;24.50;;
75746;SDS011;70632;52.232;21.038;2024-03-08T02:51:52;63.67;;;26.02;;
75746;SDS011;70632;52.232;21.038;2024-03-08T02:54:18;64.45;;;28.02;;
75746;SDS011;70632;52.232;21.038;2024-03-08T02:56:45;69.60;;;27.70;;
75746;SDS011;70632;52.232;21.038;2024-03-08T02:59:12;67.30;;;27.45;;
75746;SDS011;70632;52.232;21.038;2024-03-08T03:01:38;65.32;;;26.80;;
75746;SDS011;70632;52.232;21.038;2024-03-08T03:04:04;78.93;;;27.65;;
75746;SDS011;70632;52.232;21.038;2024-03-08T03:06:30;64.60;;;27.17;;
75746;SDS011;70632;52.232;21.038;2024-03-08T03:08:56;71.70;;;27.88;;
75746;SDS011;70632;52.232;21.038;2024-03-08T03:11:23;70.00;;;29.42;;
75746;SDS011;70632;52.232;21.038;2024-03-08T03:13:48;71.07;;;28.25;;
75746;SDS011;70632;52.232;21.038;2024-03-08T03:16:17;69.10;;;28.50;;
75746;SDS011;70632;52.232;21.038;2024-03-08T03:18:44;65.80;;;29.77;;
75746;SDS011;70632;52.232;21.038;2024-03-08T03:21:11;70.88;;;30.27;;
75746;SDS011;70632;52.232;21.038;2024-03-08T03:23:38;71.55;;;29.33;;
75746;SDS011;70632;52.232;21.038;2024-03-08T03:26:05;80.15;;;30.15;;
75746;SDS011;70632;52.232;21.038;2024-03-08T03:28:32;79.40;;;30.33;;
75746;SDS011;70632;52.232;21.038;2024-03-08T03:30:58;71.15;;;29.00;;
75746;SDS011;70632;52.232;21.038;2024-03-08T03:33:24;74.95;;;31.60;;
75746;SDS011;70632;52.232;21.038;2024-03-08T03:35:50;71.25;;;29.23;;
75746;SDS011;70632;52.232;21.038;2024-03-08T03:38:17;69.32;;;28.67;;
75746;SDS011;70632;52.232;21.038;2024-03-08T03:40:43;74.63;;;29.10;;
75746;SDS011;70632;52.232;21.038;2024-03-08T03:43:10;73.47;;;30.08;;
75746;SDS011;70632;52.232;21.038;2024-03-08T03:45:36;69.90;;;29.50;;
75746;SDS011;70632;52.232;21.038;2024-03-08T03:48:02;71.65;;;29.75;;
75746;SDS011;70632;52.232;21.038;2024-03-08T03:50:28;67.03;;;29.85;;
75746;SDS011;70632;52.232;21.038;2024-03-08T03:52:53;78.53;;;29.00;;
75746;SDS011;70632;52.232;21.038;2024-03-08T03:55:19;80.32;;;32.17;;
75746;SDS011;70632;52.232;21.038;2024-03-08T03:57:45;71.80;;;29.50;;
75746;SDS011;70632;52.232;21.038;2024-03-08T04:00:11;72.72;;;30.55;;
75746;SDS011;70632;52.232;21.038;2024-03-08T04:02:37;67.30;;;29.90;;
75746;SDS011;70632;52.232;21.038;2024-03-08T04:05:06;78.47;;;30.30;;
75746;SDS011;70632;52.232;21.038;2024-03-08T04:07:32;79.30;;;30.98;;
75746;SDS011;70632;52.232;21.038;2024-03-08T04:09:58;78.50;;;31.30;;
75746;SDS011;70632;52.232;21.038;2024-03-08T04:12:23;79.05;;;32.63;;
75746;SDS011;70632;52.232;21.038;2024-03-08T04:14:49;78.32;;;34.05;;
75746;SDS011;70632;52.232;21.038;2024-03-08T04:17:15;83.45;;;32.60;;
75746;SDS011;70632;52.232;21.038;2024-03-08T04:19:40;77.18;;;32.40;;
75746;SDS011;70632;52.232;21.038;2024-03-08T04:22:06;75.30;;;30.33;;
75746;SDS011;70632;52.232;21.038;2024-03-08T04:24:33;73.47;;;30.08;;
75746;SDS011;70632;52.232;21.038;2024-03-08T04:26:58;80.90;;;31.63;;
75746;SDS011;70632;52.232;21.038;2024-03-08T04:29:24;78.63;;;33.17;;
75746;SDS011;70632;52.232;21.038;2024-03-08T04:31:49;82.50;;;31.27;;
75746;SDS011;70632;52.232;21.038;2024-03-08T04:34:20;86.13;;;32.28;;
75746;SDS011;70632;52.232;21.038;2024-03-08T04:36:45;83.13;;;32.47;;
75746;SDS011;70632;52.232;21.038;2024-03-08T04:39:11;75.97;;;33.50;;
75746;SDS011;70632;52.232;21.038;2024-03-08T04:41:38;88.45;;;31.95;;
75746;SDS011;70632;52.232;21.038;2024-03-08T04:44:04;77.75;;;31.05;;
75746;SDS011;70632;52.232;21.038;2024-03-08T04:46:30;72.88;;;30.65;;
75746;SDS011;70632;52.232;21.038;2024-03-08T04:48:55;80.03;;;31.13;;
75746;SDS011;70632;52.232;21.038;2024-03-08T04:51:22;74.82;;;30.42;;
75746;SDS011;70632;52.232;21.038;2024-03-08T04:53:47;77.95;;;30.17;;
75746;SDS011;70632;52.232;21.038;2024-03-08T04:56:13;68.03;;;31.50;;
75746;SDS011;70632;52.232;21.038;2024-03-08T04:58:39;74.82;;;31.80;;
75746;SDS011;70632;52.232;21.038;2024-03-08T05:01:04;77.93;;;32.00;;
75746;SDS011;70632;52.232;21.038;2024-03-08T05:03:30;83.38;;;30.52;;
75746;SDS011;70632;52.232;21.038;2024-03-08T05:05:55;70.82;;;30.40;;
75746;SDS011;70632;52.232;21.038;2024-03-08T05:08:21;80.35;;;31.30;;
75746;SDS011;70632;52.232;21.038;2024-03-08T05:10:47;81.70;;;33.53;;
75746;SDS011;70632;52.232;21.038;2024-03-08T05:13:13;73.63;;;30.95;;
75746;SDS011;70632;52.232;21.038;2024-03-08T05:15:38;80.35;;;32.83;;
75746;SDS011;70632;52.232;21.038;2024-03-08T05:18:04;73.13;;;32.95;;
75746;SDS011;70632;52.232;21.038;2024-03-08T05:20:30;71.28;;;29.92;;
75746;SDS011;70632;52.232;21.038;2024-03-08T05:22:56;85.65;;;32.33;;
75746;SDS011;70632;52.232;21.038;2024-03-08T05:25:25;75.88;;;32.10;;
75746;SDS011;70632;52.232;21.038;2024-03-08T05:27:52;81.43;;;33.90;;
75746;SDS011;70632;52.232;21.038;2024-03-08T05:30:17;79.65;;;34.30;;
75746;SDS011;70632;52.232;21.038;2024-03-08T05:32:43;75.55;;;31.70;;
75746;SDS011;70632;52.232;21.038;2024-03-08T05:35:10;84.90;;;32.55;;
75746;SDS011;70632;52.232;21.038;2024-03-08T05:37:36;76.95;;;31.90;;
75746;SDS011;70632;52.232;21.038;2024-03-08T05:40:02;84.13;;;35.88;;
75746;SDS011;70632;52.232;21.038;2024-03-08T05:42:28;89.40;;;36.58;;
75746;SDS011;70632;52.232;21.038;2024-03-08T05:44:54;75.95;;;33.60;;
75746;SDS011;70632;52.232;21.038;2024-03-08T05:47:24;77.25;;;35.17;;
75746;SDS011;70632;52.232;21.038;2024-03-08T05:49:49;86.40;;;35.70;;
75746;SDS011;70632;52.232;21.038;2024-03-08T05:52:15;87.28;;;34.15;;
75746;SDS011;70632;52.232;21.038;2024-03-08T05:54:40;81.78;;;35.65;;
75746;SDS011;70632;52.232;21.038;2024-03-08T05:57:06;81.03;;;36.55;;
75746;SDS011;70632;52.232;21.038;2024-03-08T05:59:32;84.38;;;36.67;;
75746;SDS011;70632;52.232;21.038;2024-03-08T06:01:57;82.28;;;35.95;;
75746;SDS011;70632;52.232;21.038;2024-03-08T06:04:23;89.53;;;37.35;;
75746;SDS011;70632;52.232;21.038;2024-03-08T06:06:48;83.95;;;36.28;;
75746;SDS011;70632;52.232;21.038;2024-03-08T06:09:16;87.95;;;35.92;;
75746;SDS011;70632;52.232;21.038;2024-03-08T06:11:48;82.15;;;35.75;;
75746;SDS011;70632;52.232;21.038;2024-03-08T06:14:14;87.35;;;35.00;;
75746;SDS011;70632;52.232;21.038;2024-03-08T06:16:44;79.18;;;34.20;;
75746;SDS011;70632;52.232;21.038;2024-03-08T06:19:10;89.65;;;36.13;;
75746;SDS011;70632;52.232;21.038;2024-03-08T06:21:35;76.65;;;34.83;;
75746;SDS011;70632;52.232;21.038;2024-03-08T06:24:01;84.03;;;36.95;;
75746;SDS011;70632;52.232;21.038;2024-03-08T06:26:27;91.43;;;37.47;;
75746;SDS011;70632;52.232;21.038;2024-03-08T06:28:55;88.57;;;37.55;;
75746;SDS011;70632;52.232;21.038;2024-03-08T06:31:21;84.47;;;34.92;;
75746;SDS011;70632;52.232;21.038;2024-03-08T06:33:47;80.35;;;36.65;;
75746;SDS011;70632;52.232;21.038;2024-03-08T06:36:18;78.93;;;36.72;;
75746;SDS011;70632;52.232;21.038;2024-03-08T06:38:49;86.22;;;36.67;;
75746;SDS011;70632;52.232;21.038;2024-03-08T06:41:15;85.45;;;36.15;;
75746;SDS011;70632;52.232;21.038;2024-03-08T06:43:44;79.45;;;34.25;;
75746;SDS011;70632;52.232;21.038;2024-03-08T06:48:38;73.05;;;30.35;;
75746;SDS011;70632;52.232;21.038;2024-03-08T06:51:04;67.63;;;30.75;;
75746;SDS011;70632;52.232;21.038;2024-03-08T06:53:30;68.55;;;27.55;;
75746;SDS011;70632;52.232;21.038;2024-03-08T06:55:56;60.00;;;26.90;;
75746;SDS011;70632;52.232;21.038;2024-03-08T06:58:22;60.03;;;26.27;;
75746;SDS011;70632;52.232;21.038;2024-03-08T07:00:48;59.92;;;25.17;;
75746;SDS011;70632;52.232;21.038;2024-03-08T07:03:17;54.75;;;21.83;;
75746;SDS011;70632;52.232;21.038;2024-03-08T07:05:43;42.67;;;21.23;;
75746;SDS011;70632;52.232;21.038;2024-03-08T07:08:08;51.88;;;22.33;;
75746;SDS011;70632;52.232;21.038;2024-03-08T07:10:34;56.67;;;22.65;;
75746;SDS011;70632;52.232;21.038;2024-03-08T07:13:00;58.92;;;24.63;;
75746;SDS011;70632;52.232;21.038;2024-03-08T07:15:27;52.67;;;23.02;;
75746;SDS011;70632;52.232;21.038;2024-03-08T07:17:53;53.83;;;23.95;;
75746;SDS011;70632;52.232;21.038;2024-03-08T07:20:19;57.78;;;24.42;;
75746;SDS011;70632;52.232;21.038;2024-03-08T07:22:45;55.97;;;23.55;;
75746;SDS011;70632;52.232;21.038;2024-03-08T07:25:16;46.70;;;23.27;;
75746;SDS011;70632;52.232;21.038;2024-03-08T07:27:52;58.83;;;25.27;;
75746;SDS011;70632;52.232;21.038;2024-03-08T07:30:18;55.97;;;24.77;;
75746;SDS011;70632;52.232;21.038;2024-03-08T07:33:03;52.22;;;23.92;;
75746;SDS011;70632;52.232;21.038;2024-03-08T07:35:29;60.67;;;22.48;;
75746;SDS011;70632;52.232;21.038;2024-03-08T07:37:55;57.60;;;23.40;;
75746;SDS011;70632;52.232;21.038;2024-03-08T07:40:21;45.47;;;22.98;;
75746;SDS011;70632;52.232;21.038;2024-03-08T07:42:46;50.25;;;23.05;;
75746;SDS011;70632;52.232;21.038;2024-03-08T07:45:12;53.58;;;25.20;;
75746;SDS011;70632;52.232;21.038;2024-03-08T07:47:38;61.15;;;25.48;;
75746;SDS011;70632;52.232;21.038;2024-03-08T07:50:03;52.90;;;24.00;;
75746;SDS011;70632;52.232;21.038;2024-03-08T07:52:29;52.00;;;24.02;;
75746;SDS011;70632;52.232;21.038;2024-03-08T07:54:55;55.13;;;25.95;;
75746;SDS011;70632;52.232;21.038;2024-03-08T07:57:20;52.38;;;23.45;;
75746;SDS011;70632;52.232;21.038;2024-03-08T07:59:46;59.33;;;23.70;;
75746;SDS011;70632;52.232;21.038;2024-03-08T08:02:11;53.75;;;24.60;;
75746;SDS011;70632;52.232;21.038;2024-03-08T08:04:37;57.90;;;26.23;;
75746;SDS011;70632;52.232;21.038;2024-03-08T08:07:04;55.17;;;23.77;;
75746;SDS011;70632;52.232;21.038;2024-03-08T08:09:29;61.58;;;23.15;;
75746;SDS011;70632;52.232;21.038;2024-03-08T08:12:00;46.70;;;22.75;;
75746;SDS011;70632;52.232;21.038;2024-03-08T08:14:27;46.65;;;22.55;;
75746;SDS011;70632;52.232;21.038;2024-03-08T08:16:52;47.30;;;21.67;;
75746;SDS011;70632;52.232;21.038;2024-03-08T08:19:18;46.50;;;21.85;;
75746;SDS011;70632;52.232;21.038;2024-03-08T08:21:44;43.30;;;21.40;;
75746;SDS011;70632;52.232;21.038;2024-03-08T08:24:09;47.10;;;22.50;;
75746;SDS011;70632;52.232;21.038;2024-03-08T08:26:36;50.92;;;23.80;;
75746;SDS011;70632;52.232;21.038;2024-03-08T08:29:01;49.83;;;20.73;;
75746;SDS011;70632;52.232;21.038;2024-03-08T08:31:27;47.78;;;22.17;;
75746;SDS011;70632;52.232;21.038;2024-03-08T08:33:53;34.03;;;17.17;;
75746;SDS011;70632;52.232;21.038;2024-03-08T08:36:26;36.38;;;18.20;;
75746;SDS011;70632;52.232;21.038;2024-03-08T08:38:52;38.97;;;17.83;;
75746;SDS011;70632;52.232;21.038;2024-03-08T08:43:47;33.92;;;17.67;;
75746;SDS011;70632;52.232;21.038;2024-03-08T08:46:17;34.17;;;15.45;;
75746;SDS011;70632;52.232;21.038;2024-03-08T08:48:43;26.08;;;15.30;;
75746;SDS011;70632;52.232;21.038;2024-03-08T08:51:38;22.90;;;12.52;;
75746;SDS011;70632;52.232;21.038;2024-03-08T08:54:04;26.60;;;11.50;;
75746;SDS011;70632;52.232;21.038;2024-03-08T08:56:31;27.83;;;12.80;;
75746;SDS011;70632;52.232;21.038;2024-03-08T08:58:57;22.00;;;11.75;;
75746;SDS011;70632;52.232;21.038;2024-03-08T09:01:23;25.80;;;12.55;;
75746;SDS011;70632;52.232;21.038;2024-03-08T09:03:49;23.48;;;13.05;;
75746;SDS011;70632;52.232;21.038;2024-03-08T09:06:15;22.45;;;13.95;;
75746;SDS011;70632;52.232;21.038;2024-03-08T09:08:41;31.35;;;16.15;;
75746;SDS011;70632;52.232;21.038;2024-03-08T09:11:07;34.20;;;17.85;;
75746;SDS011;70632;52.232;21.038;2024-03-08T09:13:33;32.60;;;18.25;;
75746;SDS011;70632;52.232;21.038;2024-03-08T09:16:04;35.85;;;19.45;;
75746;SDS011;70632;52.232;21.038;2024-03-08T09:18:30;31.80;;;15.40;;
75746;SDS011;70632;52.232;21.038;2024-03-08T09:20:57;26.02;;;16.67;;
75746;SDS011;70632;52.232;21.038;2024-03-08T09:23:23;28.65;;;16.70;;
75746;SDS011;70632;52.232;21.038;2024-03-08T09:25:49;27.90;;;14.95;;
75746;SDS011;70632;52.232;21.038;2024-03-08T09:28:14;34.58;;;16.20;;
75746;SDS011;70632;52.232;21.038;2024-03-08T09:30:41;29.40;;;15.90;;
75746;SDS011;70632;52.232;21.038;2024-03-08T09:33:06;24.63;;;15.05;;
75746;SDS011;70632;52.232;21.038;2024-03-08T09:35:32;30.00;;;16.67;;
75746;SDS011;70632;52.232;21.038;2024-03-08T09:37:58;25.95;;;15.98;;
75746;SDS011;70632;52.232;21.038;2024-03-08T09:40:24;19.52;;;12.93;;
75746;SDS011;70632;52.232;21.038;2024-03-08T09:42:51;23.45;;;13.88;;
75746;SDS011;70632;52.232;21.038;2024-03-08T09:45:17;23.38;;;13.43;;
75746;SDS011;70632;52.232;21.038;2024-03-08T09:47:45;18.67;;;12.50;;
75746;SDS011;70632;52.232;21.038;2024-03-08T09:50:11;22.00;;;13.60;;
75746;SDS011;70632;52.232;21.038;2024-03-08T09:52:40;22.55;;;13.23;;
75746;SDS011;70632;52.232;21.038;2024-03-08T09:55:06;21.60;;;13.35;;
75746;SDS011;70632;52.232;21.038;2024-03-08T09:57:36;24.45;;;13.80;;
75746;SDS011;70632;52.232;21.038;2024-03-08T10:00:02;21.17;;;14.15;;
75746;SDS011;70632;52.232;21.038;2024-03-08T10:02:32;27.50;;;14.60;;
75746;SDS011;70632;52.232;21.038;2024-03-08T10:04:59;21.52;;;12.10;;
75746;SDS011;70632;52.232;21.038;2024-03-08T10:07:28;20.48;;;12.85;;
75746;SDS011;70632;52.232;21.038;2024-03-08T10:09:54;19.00;;;11.68;;
75746;SDS011;70632;52.232;21.038;2024-03-08T10:12:20;17.35;;;11.30;;
75746;SDS011;70632;52.232;21.038;2024-03-08T10:14:45;18.08;;;11.85;;
75746;SDS011;70632;52.232;21.038;2024-03-08T10:17:12;18.75;;;11.68;;
75746;SDS011;70632;52.232;21.038;2024-03-08T10:19:37;19.00;;;11.65;;
75746;SDS011;70632;52.232;21.038;2024-03-08T10:22:04;19.23;;;11.65;;
75746;SDS011;70632;52.232;21.038;2024-03-08T10:24:30;24.95;;;12.65;;
75746;SDS011;70632;52.232;21.038;2024-03-08T10:26:59;21.65;;;13.57;;
75746;SDS011;70632;52.232;21.038;2024-03-08T10:29:25;20.23;;;11.70;;
75746;SDS011;70632;52.232;21.038;2024-03-08T10:31:51;23.17;;;12.68;;
75746;SDS011;70632;52.232;21.038;2024-03-08T10:34:17;21.30;;;13.00;;
75746;SDS011;70632;52.232;21.038;2024-03-08T10:36:42;24.52;;;12.57;;
75746;SDS011;70632;52.232;21.038;2024-03-08T10:39:33;21.25;;;12.50;;
75746;SDS011;70632;52.232;21.038;2024-03-08T10:41:56;20.95;;;12.90;;
75746;SDS011;70632;52.232;21.038;2024-03-08T10:47:01;15.85;;;11.10;;
75746;SDS011;70632;52.232;21.038;2024-03-08T10:49:38;22.33;;;12.70;;
75746;SDS011;70632;52.232;21.038;2024-03-08T10:52:04;18.48;;;11.55;;
75746;SDS011;70632;52.232;21.038;2024-03-08T10:54:36;20.63;;;12.05;;
75746;SDS011;70632;52.232;21.038;2024-03-08T10:57:04;20.88;;;11.80;;
75746;SDS011;70632;52.232;21.038;2024-03-08T10:59:30;22.27;;;12.77;;
75746;SDS011;70632;52.232;21.038;2024-03-08T11:01:57;22.13;;;13.25;;
75746;SDS011;70632;52.232;21.038;2024-03-08T11:04:23;20.30;;;12.00;;
75746;SDS011;70632;52.232;21.038;2024-03-08T11:06:50;16.45;;;11.35;;
75746;SDS011;70632;52.232;21.038;2024-03-08T11:09:51;18.90;;;11.48;;
75746;SDS011;70632;52.232;21.038;2024-03-08T11:12:24;18.33;;;12.00;;
75746;SDS011;70632;52.232;21.038;2024-03-08T11:14:51;23.38;;;12.57;;
75746;SDS011;70632;52.232;21.038;2024-03-08T11:17:20;20.58;;;13.15;;
75746;SDS011;70632;52.232;21.038;2024-03-08T11:19:46;19.08;;;12.32;;
75746;SDS011;70632;52.232;21.038;2024-03-08T11:22:23;18.75;;;12.90;;
75746;SDS011;70632;52.232;21.038;2024-03-08T11:24:49;18.48;;;11.93;;
75746;SDS011;70632;52.232;21.038;2024-03-08T11:27:15;22.70;;;12.43;;
75746;SDS011;70632;52.232;21.038;2024-03-08T11:29:40;20.65;;;12.23;;
75746;SDS011;70632;52.232;21.038;2024-03-08T11:32:07;24.33;;;11.63;;
75746;SDS011;70632;52.232;21.038;2024-03-08T11:34:33;21.02;;;11.38;;
75746;SDS011;70632;52.232;21.038;2024-03-08T11:36:59;17.17;;;11.15;;
75746;SDS011;70632;52.232;21.038;2024-03-08T11:39:24;17.30;;;9.95;;
75746;SDS011;70632;52.232;21.038;2024-03-08T11:41:50;22.05;;;10.93;;
75746;SDS011;70632;52.232;21.038;2024-03-08T11:44:17;20.23;;;11.18;;
75746;SDS011;70632;52.232;21.038;2024-03-08T11:46:43;20.23;;;11.35;;
75746;SDS011;70632;52.232;21.038;2024-03-08T11:49:15;23.38;;;12.75;;
75746;SDS011;70632;52.232;21.038;2024-03-08T11:54:10;21.17;;;11.85;;
75746;SDS011;70632;52.232;21.038;2024-03-08T11:56:37;22.20;;;10.93;;
75746;SDS011;70632;52.232;21.038;2024-03-08T11:59:03;22.33;;;11.95;;
75746;SDS011;70632;52.232;21.038;2024-03-08T12:01:28;21.58;;;10.35;;
75746;SDS011;70632;52.232;21.038;2024-03-08T12:03:54;21.95;;;10.93;;
75746;SDS011;70632;52.232;21.038;2024-03-08T12:06:20;22.17;;;11.70;;
75746;SDS011;70632;52.232;21.038;2024-03-08T12:08:46;20.80;;;10.82;;
75746;SDS011;70632;52.232;21.038;2024-03-08T12:11:19;22.48;;;10.93;;
75746;SDS011;70632;52.232;21.038;2024-03-08T12:13:48;24.40;;;10.57;;
75746;SDS011;70632;52.232;21.038;2024-03-08T12:16:16;22.27;;;10.85;;
75746;SDS011;70632;52.232;21.038;2024-03-08T12:18:43;22.80;;;11.10;;
75746;SDS011;70632;52.232;21.038;2024-03-08T12:21:10;20.63;;;11.10;;
75746;SDS011;70632;52.232;21.038;2024-03-08T12:23:35;19.88;;;10.63;;
75746;SDS011;70632;52.232;21.038;2024-03-08T12:28:39;24.58;;;11.55;;
75746;SDS011;70632;52.232;21.038;2024-03-08T12:31:07;20.45;;;10.80;;
75746;SDS011;70632;52.232;21.038;2024-03-08T12:33:56;22.02;;;10.38;;
75746;SDS011;70632;52.232;21.038;2024-03-08T12:36:24;20.60;;;9.85;;
75746;SDS011;70632;52.232;21.038;2024-03-08T12:38:50;18.30;;;10.68;;
75746;SDS011;70632;52.232;21.038;2024-03-08T12:41:17;20.65;;;10.30;;
75746;SDS011;70632;52.232;21.038;2024-03-08T12:43:45;19.70;;;10.30;;
75746;SDS011;70632;52.232;21.038;2024-03-08T12:46:14;22.98;;;10.05;;
75746;SDS011;70632;52.232;21.038;2024-03-08T12:48:40;24.27;;;11.52;;
75746;SDS011;70632;52.232;21.038;2024-03-08T12:51:06;20.17;;;11.38;;
75746;SDS011;70632;52.232;21.038;2024-03-08T12:53:34;20.88;;;10.35;;
75746;SDS011;70632;52.232;21.038;2024-03-08T12:56:00;23.25;;;10.05;;
75746;SDS011;70632;52.232;21.038;2024-03-08T12:58:25;18.15;;;9.63;;
75746;SDS011;70632;52.232;21.038;2024-03-08T13:00:51;24.92;;;11.27;;
75746;SDS011;70632;52.232;21.038;2024-03-08T13:03:17;23.98;;;10.38;;
75746;SDS011;70632;52.232;21.038;2024-03-08T13:05:43;21.13;;;9.80;;
75746;SDS011;70632;52.232;21.038;2024-03-08T13:08:08;20.92;;;10.57;;
75746;SDS011;70632;52.232;21.038;2024-03-08T13:10:43;25.02;;;11.25;;
75746;SDS011;70632;52.232;21.038;2024-03-08T13:13:12;20.33;;;11.07;;
75746;SDS011;70632;52.232;21.038;2024-03-08T13:15:41;24.90;;;11.40;;
75746;SDS011;70632;52.232;21.038;2024-03-08T13:18:07;27.02;;;11.38;;
75746;SDS011;70632;52.232;21.038;2024-03-08T13:20:34;25.13;;;10.48;;
75746;SDS011;70632;52.232;21.038;2024-03-08T13:23:05;23.35;;;11.18;;
75746;SDS011;70632;52.232;21.038;2024-03-08T13:25:32;21.75;;;10.82;;
75746;SDS011;70632;52.232;21.038;2024-03-08T13:27:57;21.88;;;10.32;;
75746;SDS011;70632;52.232;21.038;2024-03-08T13:30:26;27.85;;;11.05;;
75746;SDS011;70632;52.232;21.038;2024-03-08T13:32:52;29.92;;;11.40;;
75746;SDS011;70632;52.232;21.038;2024-03-08T13:35:18;19.50;;;10.68;;
75746;SDS011;70632;52.232;21.038;2024-03-08T13:37:49;22.40;;;10.98;;
75746;SDS011;70632;52.232;21.038;2024-03-08T13:40:16;20.98;;;9.88;;
75746;SDS011;70632;52.232;21.038;2024-03-08T13:42:44;25.95;;;12.23;;
75746;SDS011;70632;52.232;21.038;2024-03-08T13:45:09;19.65;;;9.65;;
75746;SDS011;70632;52.232;21.038;2024-03-08T13:47:39;20.98;;;11.00;;
75746;SDS011;70632;52.232;21.038;2024-03-08T13:50:07;21.75;;;11.15;;
75746;SDS011;70632;52.232;21.038;2024-03-08T13:52:35;26.42;;;13.02;;
75746;SDS011;70632;52.232;21.038;2024-03-08T13:55:01;23.10;;;10.35;;
75746;SDS011;70632;52.232;21.038;2024-03-08T13:57:26;23.02;;;10.85;;
75746;SDS011;70632;52.232;21.038;2024-03-08T13:59:53;22.55;;;10.82;;
75746;SDS011;70632;52.232;21.038;2024-03-08T14:02:19;21.15;;;10.52;;
75746;SDS011;70632;52.232;21.038;2024-03-08T14:04:44;21.50;;;10.55;;
75746;SDS011;70632;52.232;21.038;2024-03-08T14:07:10;23.75;;;10.95;;
75746;SDS011;70632;52.232;21.038;2024-03-08T14:09:36;25.92;;;10.60;;
75746;SDS011;70632;52.232;21.038;2024-03-08T14:12:08;22.17;;;11.75;;
75746;SDS011;70632;52.232;21.038;2024-03-08T14:14:33;26.20;;;11.43;;
75746;SDS011;70632;52.232;21.038;2024-03-08T14:17:00;23.13;;;10.95;;
75746;SDS011;70632;52.232;21.038;2024-03-08T14:19:27;26.80;;;12.55;;